BHX weather

Birmingham International Airport
Birmingham, England, United Kingdom

Public forecast

Using degrees Celsius for public forecast. Weather courtesy of forecast.io.

METAR (pilot weather report)

Retrieved 2019/03/23 22:20 UTC (0 seconds ago):

EGBB 232220Z 36005KT CAVOK 07/00 Q1033

TAF (pilot weather forecast)

Retrieved 2019/03/23 18:15 UTC (4 hours ago):

TAF EGBB 231652Z 2318/2418 VRB03KT 9999 FEW040 BECMG 2409/2412 30010KT